createdAt,value
2022-10-03T00:02:49.941Z,2.42
2022-10-03T00:08:21.846Z,2.55
2022-10-03T00:14:08.271Z,2.20
2022-10-03T00:19:48.203Z,2.38
2022-10-03T00:24:55.618Z,2.47
2022-10-03T00:30:02.207Z,2.80
2022-10-03T00:35:20.130Z,2.30
2022-10-03T00:45:38.606Z,3.22
2022-10-03T00:50:40.031Z,2.70
2022-10-03T00:56:07.670Z,2.08
2022-10-03T01:01:36.156Z,2.70
2022-10-03T01:06:47.474Z,2.53
2022-10-03T01:12:23.237Z,2.30
2022-10-03T01:17:53.965Z,2.47
2022-10-03T01:23:17.623Z,2.40
2022-10-03T01:28:46.644Z,1.90
2022-10-03T01:34:01.092Z,1.85
2022-10-03T01:39:14.978Z,1.92
2022-10-03T01:44:37.949Z,2.13
2022-10-03T01:49:48.566Z,2.00
2022-10-03T01:55:11.982Z,1.95
2022-10-03T02:00:16.063Z,1.83
2022-10-03T02:05:48.344Z,1.70
2022-10-03T02:10:55.769Z,2.10
2022-10-03T02:16:33.637Z,1.88
2022-10-03T02:21:47.432Z,1.97
2022-10-03T02:27:27.459Z,2.22
2022-10-03T02:32:53.697Z,2.00
2022-10-03T02:38:21.412Z,2.88
2022-10-03T02:43:42.739Z,1.95
2022-10-03T02:49:21.824Z,1.95
2022-10-03T02:54:50.761Z,1.60
2022-10-03T03:00:06.665Z,1.90
2022-10-03T03:05:41.940Z,1.92
2022-10-03T03:11:09.350Z,1.88
2022-10-03T03:16:53.110Z,1.93
2022-10-03T03:22:14.400Z,1.73
2022-10-03T03:27:35.127Z,1.92
2022-10-03T03:32:48.696Z,1.92
2022-10-03T03:38:11.975Z,2.00
2022-10-03T03:43:39.379Z,1.63
2022-10-03T03:49:09.092Z,1.90
2022-10-03T03:54:34.438Z,2.00
2022-10-03T04:00:04.443Z,1.77
2022-10-03T04:05:14.950Z,1.80
2022-10-03T04:11:11.915Z,1.77
2022-10-03T04:16:50.237Z,2.17
2022-10-03T04:22:19.912Z,1.80
2022-10-03T04:27:54.414Z,1.85
2022-10-03T04:33:18.356Z,2.05
2022-10-03T04:38:44.635Z,2.58
2022-10-03T04:44:16.734Z,2.95
2022-10-03T04:49:39.952Z,2.40
2022-10-03T04:55:00.080Z,3.88
2022-10-03T05:00:23.656Z,3.40
2022-10-03T05:05:51.540Z,3.78
2022-10-03T05:11:08.052Z,5.53
2022-10-03T05:16:19.166Z,5.35
2022-10-03T05:21:32.982Z,4.60
2022-10-03T05:26:46.782Z,4.82
2022-10-03T05:32:12.589Z,4.05
2022-10-03T05:37:33.110Z,3.55
2022-10-03T05:42:47.883Z,2.67
2022-10-03T05:48:09.380Z,2.70
2022-10-03T05:53:35.215Z,2.67
2022-10-03T05:58:47.332Z,2.60
2022-10-03T06:04:09.840Z,2.20
2022-10-03T06:09:37.659Z,3.30
2022-10-03T06:14:57.817Z,2.78
2022-10-03T06:20:10.867Z,2.03
2022-10-03T06:25:53.323Z,2.30
2022-10-03T06:31:06.542Z,2.35
2022-10-03T06:36:36.161Z,2.20
2022-10-03T06:42:04.125Z,2.03
2022-10-03T06:47:18.571Z,2.92
2022-10-03T06:52:25.691Z,2.85
2022-10-03T06:57:34.246Z,2.58
2022-10-03T07:03:23.457Z,2.80
2022-10-03T07:08:56.098Z,2.65
2022-10-03T07:14:19.541Z,2.47
2022-10-03T07:19:39.798Z,2.28
2022-10-03T07:25:12.865Z,2.53
2022-10-03T07:30:24.426Z,3.65
2022-10-03T07:35:59.696Z,2.33
2022-10-03T07:41:21.340Z,3.33
2022-10-03T07:46:37.658Z,4.10
2022-10-03T07:51:52.360Z,4.65
2022-10-03T07:57:04.063Z,4.45
2022-10-03T08:02:33.239Z,3.88
2022-10-03T08:07:53.346Z,2.45
2022-10-03T08:13:14.597Z,1.95
2022-10-03T08:18:28.111Z,2.88
2022-10-03T08:23:43.088Z,2.05
2022-10-03T08:29:08.729Z,2.38
2022-10-03T08:34:27.213Z,1.58
2022-10-03T08:40:17.108Z,1.77
2022-10-03T08:46:12.980Z,1.70
2022-10-03T08:51:42.459Z,1.75
2022-10-03T08:57:21.500Z,2.35
2022-10-03T09:03:31.578Z,1.65
2022-10-03T09:08:52.278Z,1.33
2022-10-03T09:14:11.719Z,1.60
2022-10-03T09:19:16.726Z,1.60
2022-10-03T09:24:38.102Z,2.00
2022-10-03T09:30:04.506Z,1.48
2022-10-03T09:35:20.795Z,1.50
2022-10-03T09:40:40.841Z,2.80
2022-10-03T09:46:01.710Z,1.60
2022-10-03T09:51:09.327Z,1.58
2022-10-03T09:56:25.897Z,2.28
2022-10-03T10:01:58.028Z,1.75
2022-10-03T10:07:30.170Z,1.27
2022-10-03T10:13:15.716Z,1.23
2022-10-03T10:18:41.981Z,1.52
2022-10-03T10:23:50.622Z,2.05
2022-10-03T10:29:33.152Z,1.90
2022-10-03T10:34:59.450Z,1.85
2022-10-03T10:40:38.733Z,1.08
2022-10-03T10:46:21.391Z,1.10
2022-10-03T10:51:44.722Z,1.30
2022-10-03T10:57:02.795Z,1.13
2022-10-03T11:02:16.057Z,1.30
2022-10-03T11:07:42.738Z,1.10
2022-10-03T11:12:45.282Z,1.90
2022-10-03T11:18:25.044Z,1.75
2022-10-03T11:24:04.847Z,1.90
2022-10-03T11:29:31.397Z,1.80
2022-10-03T11:34:49.426Z,1.65
2022-10-03T11:40:21.788Z,1.52
2022-10-03T11:45:29.217Z,2.08
2022-10-03T11:50:39.533Z,1.77
2022-10-03T11:55:47.069Z,1.90
2022-10-03T12:01:00.051Z,1.92
2022-10-03T12:06:47.436Z,2.00
2022-10-03T12:11:54.361Z,2.30
2022-10-03T12:17:08.222Z,1.60
2022-10-03T12:22:26.558Z,2.33
2022-10-03T12:28:00.560Z,1.77
2022-10-03T12:33:17.146Z,1.98
2022-10-03T12:38:34.893Z,1.40
2022-10-03T12:44:05.232Z,1.77
2022-10-03T12:49:38.342Z,1.80
2022-10-03T12:55:07.037Z,1.75
2022-10-03T13:00:28.199Z,1.77
2022-10-03T13:06:07.360Z,1.90
2022-10-03T13:11:37.622Z,2.80
2022-10-03T13:16:55.566Z,2.00
2022-10-03T13:22:12.271Z,1.65
2022-10-03T13:27:29.248Z,1.80
2022-10-03T13:32:33.897Z,1.60
2022-10-03T13:37:53.973Z,2.20
2022-10-03T13:42:57.697Z,2.10
2022-10-03T13:48:10.751Z,1.98
2022-10-03T13:53:16.650Z,2.30
2022-10-03T13:58:55.588Z,2.28
2022-10-03T14:04:35.660Z,1.92
2022-10-03T14:10:12.985Z,3.13
2022-10-03T14:15:41.777Z,2.53
2022-10-03T14:21:01.188Z,2.97
2022-10-03T14:26:25.326Z,1.67
2022-10-03T14:31:39.436Z,2.08
2022-10-03T14:36:54.249Z,2.47
2022-10-03T14:41:55.738Z,2.25
2022-10-03T14:47:00.590Z,1.80
2022-10-03T14:52:09.404Z,2.30
2022-10-03T14:57:47.684Z,3.38
2022-10-03T15:02:56.278Z,2.70
2022-10-03T15:07:58.028Z,2.60
2022-10-03T15:13:06.238Z,2.30
2022-10-03T15:18:15.270Z,2.20
2022-10-03T15:23:23.321Z,2.47
2022-10-03T15:28:30.285Z,2.10
2022-10-03T15:33:34.752Z,2.50
2022-10-03T15:38:41.842Z,1.95
2022-10-03T15:43:57.816Z,2.30
2022-10-03T15:49:06.032Z,2.28
2022-10-03T15:54:12.701Z,2.60
2022-10-03T15:59:27.395Z,2.28
2022-10-03T16:04:35.774Z,4.00
2022-10-03T16:10:01.521Z,2.92
2022-10-03T16:15:02.932Z,2.20
2022-10-03T16:20:19.471Z,2.13
2022-10-03T16:25:53.324Z,2.92
2022-10-03T16:31:03.128Z,2.45
2022-10-03T16:36:08.162Z,3.38
2022-10-03T16:41:19.273Z,3.00
2022-10-03T16:46:22.993Z,3.53
2022-10-03T16:51:38.521Z,3.22
2022-10-03T16:56:45.776Z,3.15
2022-10-03T17:01:55.084Z,3.65
2022-10-03T17:06:59.800Z,3.17
2022-10-03T17:12:03.132Z,2.70
2022-10-03T17:17:21.925Z,3.70
2022-10-03T17:22:32.054Z,3.80
2022-10-03T17:27:39.954Z,3.20
2022-10-03T17:32:44.930Z,3.30
2022-10-03T17:38:37.558Z,4.18
2022-10-03T17:43:46.555Z,3.58
2022-10-03T17:49:19.475Z,3.40
2022-10-03T17:54:26.497Z,3.40
2022-10-03T17:59:32.654Z,3.22
2022-10-03T18:04:42.086Z,4.00
2022-10-03T18:09:48.042Z,3.25
2022-10-03T18:15:16.214Z,3.88
2022-10-03T18:20:33.254Z,3.22
2022-10-03T18:26:20.586Z,4.07
2022-10-03T18:31:22.534Z,3.83
2022-10-03T18:36:49.320Z,3.78
2022-10-03T18:41:59.664Z,3.60
2022-10-03T18:47:21.797Z,3.75
2022-10-03T18:52:33.569Z,4.80
2022-10-03T18:57:51.076Z,8.70
2022-10-03T19:02:57.191Z,9.98
2022-10-03T19:08:17.368Z,6.95
2022-10-03T19:13:48.452Z,7.70
2022-10-03T19:19:15.352Z,6.55
2022-10-03T19:24:39.811Z,5.70
2022-10-03T19:29:47.033Z,4.78
2022-10-03T19:34:50.725Z,3.75
2022-10-03T19:39:52.665Z,4.72
2022-10-03T19:44:59.611Z,7.70
2022-10-03T19:50:31.965Z,10.20
2022-10-03T19:55:37.260Z,5.90
2022-10-03T20:00:40.415Z,4.18
2022-10-03T20:06:02.070Z,3.92
2022-10-03T20:11:16.459Z,4.13
2022-10-03T20:16:25.255Z,3.72
2022-10-03T20:21:29.400Z,3.53
2022-10-03T20:26:43.999Z,3.83
2022-10-03T20:31:46.754Z,3.70
2022-10-03T20:36:54.595Z,4.20
2022-10-03T20:42:04.626Z,4.40
2022-10-03T20:47:11.353Z,3.90
2022-10-03T20:52:19.286Z,4.80
2022-10-03T20:57:26.713Z,5.10
2022-10-03T21:07:43.048Z,4.70
2022-10-03T21:12:51.425Z,4.57
2022-10-03T21:17:56.661Z,4.75
2022-10-03T21:23:03.550Z,5.78
2022-10-03T21:28:18.291Z,4.63
2022-10-03T21:33:24.887Z,4.93
2022-10-03T21:38:32.882Z,4.85
2022-10-03T21:43:56.610Z,4.88
2022-10-03T21:49:21.045Z,4.88
2022-10-03T21:54:25.360Z,5.18
2022-10-03T21:59:29.702Z,5.82
2022-10-03T22:04:40.377Z,5.15
2022-10-03T22:09:51.080Z,4.88
2022-10-03T22:15:18.685Z,5.15
2022-10-03T22:20:26.138Z,4.78
2022-10-03T22:25:40.204Z,5.03
2022-10-03T22:30:52.039Z,4.75
2022-10-03T22:35:55.722Z,5.22
2022-10-03T22:41:01.118Z,4.45
2022-10-03T22:46:04.959Z,4.43
2022-10-03T22:51:09.635Z,3.92
2022-10-03T22:56:48.375Z,4.40
2022-10-03T23:01:52.827Z,4.32
2022-10-03T23:07:19.361Z,4.32
2022-10-03T23:12:24.486Z,4.32
2022-10-03T23:17:56.707Z,4.72
2022-10-03T23:23:02.627Z,5.15
2022-10-03T23:28:18.207Z,4.57
2022-10-03T23:33:32.417Z,4.60
2022-10-03T23:38:33.813Z,4.80
2022-10-03T23:43:46.158Z,4.65
2022-10-03T23:48:52.057Z,4.18
2022-10-03T23:54:02.467Z,4.72
2022-10-03T23:59:03.888Z,4.18
